createdAt,value
2019-02-21T00:00:43.443Z,67.54
2019-02-21T00:01:43.471Z,68.11
2019-02-21T00:02:43.501Z,67.82
2019-02-21T00:03:43.544Z,67.25
2019-02-21T00:04:43.563Z,67.44
2019-02-21T00:05:43.605Z,67.35
2019-02-21T00:06:43.624Z,67.44
2019-02-21T00:07:43.699Z,67.44
2019-02-21T00:08:43.701Z,67.35
2019-02-21T00:09:43.717Z,67.73
2019-02-21T00:10:43.747Z,67.44
2019-02-21T00:11:43.783Z,67.44
2019-02-21T00:12:43.807Z,67.73
2019-02-21T00:13:43.838Z,67.82
2019-02-21T00:14:43.873Z,67.54
2019-02-21T00:15:43.901Z,67.82
2019-02-21T00:16:43.929Z,67.44
2019-02-21T00:17:43.960Z,67.82
2019-02-21T00:18:43.996Z,67.44
2019-02-21T00:19:44.022Z,67.82
2019-02-21T00:20:44.054Z,68.11
2019-02-21T00:21:44.083Z,67.63
2019-02-21T00:22:44.114Z,67.44
2019-02-21T00:23:44.143Z,67.44
2019-02-21T00:24:44.174Z,67.92
2019-02-21T00:25:44.206Z,68.21
2019-02-21T00:26:44.432Z,68.30
2019-02-21T00:27:44.265Z,68.01
2019-02-21T00:28:44.296Z,68.11
2019-02-21T00:29:44.330Z,67.82
2019-02-21T00:30:44.368Z,67.44
2019-02-21T00:31:44.389Z,67.44
2019-02-21T00:32:44.419Z,67.82
2019-02-21T00:33:44.451Z,68.01
2019-02-21T00:34:44.479Z,68.01
2019-02-21T00:35:44.511Z,68.11
2019-02-21T00:36:44.541Z,68.11
2019-02-21T00:37:44.573Z,67.63
2019-02-21T00:38:44.606Z,67.92
2019-02-21T00:39:44.634Z,67.92
2019-02-21T00:40:44.663Z,67.92
2019-02-21T00:41:44.694Z,67.73
2019-02-21T00:42:44.725Z,67.44
2019-02-21T00:43:44.755Z,67.25
2019-02-21T00:44:44.786Z,68.01
2019-02-21T00:45:44.819Z,68.11
2019-02-21T00:46:44.847Z,68.01
2019-02-21T00:47:44.879Z,68.01
2019-02-21T00:48:44.907Z,68.11
2019-02-21T00:49:44.937Z,68.01
2019-02-21T00:50:44.970Z,67.35
2019-02-21T00:51:44.999Z,67.25
2019-02-21T00:52:45.034Z,67.63
2019-02-21T00:53:45.060Z,67.25
2019-02-21T00:54:45.092Z,67.25
2019-02-21T00:55:45.197Z,67.54
2019-02-21T00:56:45.153Z,67.44
2019-02-21T00:57:45.183Z,67.54
2019-02-21T00:58:45.213Z,67.44
2019-02-21T00:59:45.243Z,68.30
2019-02-21T01:00:46.814Z,67.73
2019-02-21T01:01:45.319Z,67.44
2019-02-21T01:02:45.335Z,67.35
2019-02-21T01:03:45.367Z,67.54
2019-02-21T01:04:45.396Z,67.54
2019-02-21T01:05:45.427Z,67.54
2019-02-21T01:06:45.458Z,67.44
2019-02-21T01:07:45.487Z,67.92
2019-02-21T01:08:45.517Z,67.35
2019-02-21T01:09:45.552Z,67.63
2019-02-21T01:10:45.580Z,68.30
2019-02-21T01:11:45.608Z,67.73
2019-02-21T01:12:45.647Z,68.01
2019-02-21T01:13:45.676Z,67.92
2019-02-21T01:14:45.704Z,67.92
2019-02-21T01:15:45.734Z,67.73
2019-02-21T01:16:45.762Z,67.73
2019-02-21T01:17:45.797Z,68.01
2019-02-21T01:18:45.846Z,67.82
2019-02-21T01:19:45.853Z,67.73
2019-02-21T01:20:45.885Z,68.01
2019-02-21T01:21:45.914Z,67.92
2019-02-21T01:22:45.947Z,67.35
2019-02-21T01:23:45.976Z,67.73
2019-02-21T01:24:46.006Z,67.35
2019-02-21T01:25:46.038Z,68.30
2019-02-21T01:26:46.067Z,68.30
2019-02-21T01:27:46.099Z,67.44
2019-02-21T01:28:46.128Z,66.97
2019-02-21T01:29:46.161Z,66.87
2019-02-21T01:30:56.395Z,67.35
2019-02-21T01:31:46.220Z,67.73
2019-02-21T01:32:46.250Z,67.82
2019-02-21T01:33:46.282Z,67.25
2019-02-21T01:34:46.311Z,67.35
2019-02-21T01:35:46.343Z,67.35
2019-02-21T01:36:46.373Z,67.25
2019-02-21T01:37:46.411Z,67.35
2019-02-21T01:38:46.439Z,67.35
2019-02-21T01:39:46.464Z,67.44
2019-02-21T01:40:46.495Z,66.97
2019-02-21T01:41:46.525Z,67.25
2019-02-21T01:42:46.556Z,67.25
2019-02-21T01:43:46.585Z,67.16
2019-02-21T01:44:46.617Z,67.07
2019-02-21T01:45:46.646Z,67.07
2019-02-21T01:46:46.679Z,66.87
2019-02-21T01:47:46.713Z,66.97
2019-02-21T01:48:46.737Z,66.78
2019-02-21T01:49:46.771Z,67.07
2019-02-21T01:50:46.799Z,67.07
2019-02-21T01:51:46.831Z,66.97
2019-02-21T01:52:46.859Z,67.16
2019-02-21T01:53:46.890Z,66.87
2019-02-21T01:54:46.921Z,66.78
2019-02-21T01:55:46.951Z,66.20
2019-02-21T01:56:46.982Z,66.68
2019-02-21T01:57:47.011Z,66.20
2019-02-21T01:58:47.043Z,66.68
2019-02-21T01:59:47.073Z,66.97
2019-02-21T02:00:47.104Z,66.68
2019-02-21T02:01:47.134Z,66.87
2019-02-21T02:02:47.165Z,66.97
2019-02-21T02:03:47.195Z,66.78
2019-02-21T02:04:47.226Z,66.97
2019-02-21T02:05:47.257Z,67.07
2019-02-21T02:06:47.289Z,67.07
2019-02-21T02:07:47.332Z,67.16
2019-02-21T02:08:47.348Z,66.78
2019-02-21T02:09:47.439Z,67.16
2019-02-21T02:10:47.410Z,66.87
2019-02-21T02:11:47.442Z,66.87
2019-02-21T02:12:47.469Z,66.78
2019-02-21T02:13:47.500Z,66.78
2019-02-21T02:14:47.532Z,66.87
2019-02-21T02:15:47.560Z,66.87
2019-02-21T02:16:47.592Z,66.87
2019-02-21T02:17:47.621Z,67.35
2019-02-21T02:18:47.654Z,67.16
2019-02-21T02:19:47.683Z,67.07
2019-02-21T02:20:47.713Z,67.16
2019-02-21T02:21:47.745Z,67.25
2019-02-21T02:22:47.777Z,67.16
2019-02-21T02:23:47.807Z,66.97
2019-02-21T02:24:47.835Z,67.35
2019-02-21T02:25:47.867Z,67.07
2019-02-21T02:26:47.899Z,66.97
2019-02-21T02:27:48.023Z,67.07
2019-02-21T02:28:47.959Z,67.25
2019-02-21T02:29:47.989Z,66.97
2019-02-21T02:30:48.018Z,67.35
2019-02-21T02:31:48.056Z,67.92
2019-02-21T02:32:48.110Z,67.82
2019-02-21T02:33:48.158Z,67.73
2019-02-21T02:34:48.141Z,67.63
2019-02-21T02:35:48.171Z,68.01
2019-02-21T02:36:48.216Z,68.21
2019-02-21T02:37:48.234Z,67.63
2019-02-21T02:38:48.262Z,67.92
2019-02-21T02:39:48.295Z,67.54
2019-02-21T02:40:48.349Z,67.73
2019-02-21T02:41:48.355Z,67.63
2019-02-21T02:42:48.384Z,67.54
2019-02-21T02:43:48.415Z,67.54
2019-02-21T02:44:48.449Z,67.07
2019-02-21T02:45:48.512Z,67.63
2019-02-21T02:46:48.510Z,67.73
2019-02-21T02:47:48.535Z,67.63
2019-02-21T02:48:48.567Z,68.01
2019-02-21T02:49:48.598Z,67.63
2019-02-21T02:50:48.630Z,67.63
2019-02-21T02:51:48.659Z,68.30
2019-02-21T02:52:48.698Z,67.44
2019-02-21T02:53:48.718Z,68.01
2019-02-21T02:54:48.749Z,67.25
2019-02-21T02:55:48.780Z,67.63
2019-02-21T02:56:48.816Z,67.35
2019-02-21T02:57:48.843Z,67.44
2019-02-21T02:58:48.872Z,68.11
2019-02-21T02:59:48.901Z,67.82
2019-02-21T03:00:48.932Z,68.40
2019-02-21T03:01:48.964Z,68.01
2019-02-21T03:02:48.995Z,67.82
2019-02-21T03:03:49.023Z,67.92
2019-02-21T03:04:49.094Z,68.01
2019-02-21T03:05:49.084Z,68.01
2019-02-21T03:06:49.116Z,68.01
2019-02-21T03:07:49.146Z,68.01
2019-02-21T03:08:49.178Z,68.01
2019-02-21T03:09:49.206Z,68.01
2019-02-21T03:10:49.237Z,68.01
2019-02-21T03:11:51.739Z,68.21
2019-02-21T03:12:49.300Z,67.92
2019-02-21T03:13:49.327Z,68.30
2019-02-21T03:14:49.359Z,68.21
2019-02-21T03:15:49.389Z,67.82
2019-02-21T03:16:49.425Z,68.30
2019-02-21T03:17:49.451Z,67.92
2019-02-21T03:18:49.481Z,68.21
2019-02-21T03:19:49.606Z,68.01
2019-02-21T03:20:49.540Z,68.21
2019-02-21T03:21:49.576Z,68.21
2019-02-21T03:22:49.601Z,68.21
2019-02-21T03:23:49.632Z,68.77
2019-02-21T03:24:49.661Z,68.59
2019-02-21T03:25:49.693Z,68.49
2019-02-21T03:26:49.723Z,68.49
2019-02-21T03:27:49.752Z,68.11
2019-02-21T03:28:49.798Z,68.59
2019-02-21T03:29:49.818Z,68.40
2019-02-21T03:30:49.849Z,68.40
2019-02-21T03:31:55.219Z,68.21
2019-02-21T03:32:49.923Z,68.68
2019-02-21T03:33:49.943Z,68.96
2019-02-21T03:34:49.969Z,68.96
2019-02-21T03:35:49.997Z,69.25
2019-02-21T03:36:50.044Z,69.15
2019-02-21T03:37:50.059Z,69.25
2019-02-21T03:38:50.099Z,69.06
2019-02-21T03:39:50.117Z,69.15
2019-02-21T03:40:50.152Z,69.44
2019-02-21T03:41:50.183Z,69.25
2019-02-21T03:42:50.217Z,69.82
2019-02-21T03:43:50.238Z,69.82
2019-02-21T03:44:50.269Z,69.06
2019-02-21T03:45:50.300Z,69.25
2019-02-21T03:46:50.331Z,69.35
2019-02-21T03:47:50.360Z,69.35
2019-02-21T03:48:50.392Z,69.06
2019-02-21T03:49:50.424Z,69.82
2019-02-21T03:50:50.457Z,69.15
2019-02-21T03:51:50.488Z,69.25
2019-02-21T03:52:50.513Z,69.82
2019-02-21T03:53:50.543Z,69.35
2019-02-21T03:54:50.591Z,69.82
2019-02-21T03:55:50.604Z,69.44
2019-02-21T03:56:50.635Z,69.73
2019-02-21T03:57:50.666Z,69.82
2019-02-21T03:58:50.696Z,69.92
2019-02-21T03:59:50.734Z,69.63
2019-02-21T04:00:50.755Z,69.63
2019-02-21T04:01:50.792Z,70.01
2019-02-21T04:02:50.834Z,69.82
2019-02-21T04:03:50.846Z,69.63
2019-02-21T04:04:50.877Z,69.44
2019-02-21T04:05:50.908Z,69.73
2019-02-21T04:06:50.944Z,69.44
2019-02-21T04:07:50.970Z,69.73
2019-02-21T04:08:50.998Z,70.01
2019-02-21T04:09:51.059Z,69.92
2019-02-21T04:10:51.059Z,70.10
2019-02-21T04:11:51.091Z,70.49
2019-02-21T04:12:51.119Z,70.49
2019-02-21T04:13:51.154Z,70.68
2019-02-21T04:14:51.194Z,70.58
2019-02-21T04:15:51.213Z,70.39
2019-02-21T04:16:51.245Z,71.25
2019-02-21T04:17:51.273Z,71.34
2019-02-21T04:18:51.301Z,71.63
2019-02-21T04:19:51.331Z,71.15
2019-02-21T04:20:51.363Z,70.97
2019-02-21T04:21:51.394Z,71.63
2019-02-21T04:22:51.423Z,72.01
2019-02-21T04:23:51.453Z,71.72
2019-02-21T04:24:51.488Z,71.91
2019-02-21T04:25:51.516Z,71.82
2019-02-21T04:26:51.544Z,72.01
2019-02-21T04:27:51.574Z,72.30
2019-02-21T04:28:51.606Z,71.91
2019-02-21T04:29:51.636Z,72.49
2019-02-21T04:30:51.666Z,72.39
2019-02-21T04:31:51.694Z,72.39
2019-02-21T04:32:51.730Z,72.20
2019-02-21T04:33:51.768Z,72.30
2019-02-21T04:34:51.788Z,72.39
2019-02-21T04:35:51.817Z,72.67
2019-02-21T04:36:51.847Z,72.39
2019-02-21T04:37:51.885Z,72.49
2019-02-21T04:38:51.908Z,73.15
2019-02-21T04:39:51.937Z,72.86
2019-02-21T04:40:51.971Z,73.15
2019-02-21T04:41:51.999Z,73.06
2019-02-21T04:42:52.029Z,72.86
2019-02-21T04:43:52.063Z,73.25
2019-02-21T04:44:52.094Z,72.86
2019-02-21T04:45:52.122Z,72.86
2019-02-21T04:46:52.152Z,72.77
2019-02-21T04:47:52.180Z,73.06
2019-02-21T04:48:52.211Z,73.06
2019-02-21T04:49:52.242Z,73.15
2019-02-21T04:50:54.412Z,73.53
2019-02-21T04:51:52.301Z,73.25
2019-02-21T04:52:52.332Z,73.63
2019-02-21T04:53:52.394Z,73.34
2019-02-21T04:54:52.393Z,73.25
2019-02-21T04:55:52.448Z,73.53
2019-02-21T04:56:52.453Z,73.72
2019-02-21T04:57:52.541Z,73.44
2019-02-21T04:58:52.533Z,73.63
2019-02-21T04:59:52.545Z,73.53
2019-02-21T05:00:52.583Z,73.72
2019-02-21T05:01:52.605Z,73.53
2019-02-21T05:02:52.636Z,73.63
2019-02-21T05:03:52.668Z,74.39
2019-02-21T05:04:52.694Z,74.39
2019-02-21T05:05:52.732Z,74.10
2019-02-21T05:06:52.756Z,74.48
2019-02-21T05:07:52.785Z,74.77
2019-02-21T05:08:52.815Z,75.24
2019-02-21T05:09:57.901Z,75.43
2019-02-21T05:10:52.885Z,75.34
2019-02-21T05:11:52.909Z,75.81
2019-02-21T05:12:52.940Z,76.01
2019-02-21T05:13:52.969Z,76.10
2019-02-21T05:14:52.999Z,76.76
2019-02-21T05:15:53.030Z,76.48
2019-02-21T05:16:53.057Z,76.76
2019-02-21T05:17:53.089Z,76.29
2019-02-21T05:18:53.119Z,76.10
2019-02-21T05:19:53.148Z,76.20
2019-02-21T05:20:53.178Z,76.10
2019-02-21T05:21:53.210Z,76.57
2019-02-21T05:22:53.242Z,76.57
2019-02-21T05:23:53.272Z,76.76
2019-02-21T05:24:53.300Z,76.29
2019-02-21T05:25:53.331Z,77.43
2019-02-21T05:26:53.362Z,77.53
2019-02-21T05:27:53.391Z,77.43
2019-02-21T05:28:53.426Z,76.96
2019-02-21T05:29:53.484Z,77.24
2019-02-21T05:30:53.579Z,77.34
2019-02-21T05:31:53.513Z,77.43
2019-02-21T05:32:53.544Z,77.81
2019-02-21T05:33:53.573Z,77.72
2019-02-21T05:34:53.603Z,78.57
2019-02-21T05:35:53.633Z,78.63
2019-02-21T05:36:53.664Z,78.16
2019-02-21T05:37:53.693Z,78.53
2019-02-21T05:38:53.724Z,78.63
2019-02-21T05:39:53.756Z,78.86
2019-02-21T05:40:53.783Z,78.91
2019-02-21T05:41:53.815Z,79.01
2019-02-21T05:42:53.844Z,78.82
2019-02-21T05:43:53.874Z,78.63
2019-02-21T05:44:53.905Z,78.63
2019-02-21T05:45:53.938Z,78.91
2019-02-21T05:46:53.967Z,79.01
2019-02-21T05:47:53.995Z,79.11
2019-02-21T05:48:54.025Z,78.91
2019-02-21T05:49:54.055Z,79.20
2019-02-21T05:50:54.086Z,78.72
2019-02-21T05:51:54.117Z,79.39
2019-02-21T05:52:54.153Z,79.49
2019-02-21T05:53:54.181Z,79.86
2019-02-21T05:54:54.208Z,79.49
2019-02-21T05:55:54.239Z,79.39
2019-02-21T05:56:54.283Z,79.49
2019-02-21T05:57:54.302Z,79.77
2019-02-21T05:58:54.327Z,79.77
2019-02-21T05:59:54.376Z,79.30
2019-02-21T06:00:54.392Z,79.77
2019-02-21T06:01:54.420Z,79.77
2019-02-21T06:02:54.449Z,79.30
2019-02-21T06:03:54.487Z,79.58
2019-02-21T06:04:54.509Z,79.20
2019-02-21T06:05:54.543Z,79.30
2019-02-21T06:06:54.569Z,79.58
2019-02-21T06:07:54.630Z,79.49
2019-02-21T06:08:54.675Z,79.58
2019-02-21T06:09:54.659Z,78.91
2019-02-21T06:10:54.691Z,78.91
2019-02-21T06:11:54.719Z,79.58
2019-02-21T06:12:54.749Z,79.68
2019-02-21T06:13:54.784Z,79.30
2019-02-21T06:14:54.848Z,79.58
2019-02-21T06:15:54.844Z,79.30
2019-02-21T06:16:54.871Z,79.68
2019-02-21T06:17:54.902Z,79.77
2019-02-21T06:18:54.933Z,79.58
2019-02-21T06:19:54.961Z,79.58
2019-02-21T06:20:57.512Z,79.49
2019-02-21T06:21:55.028Z,79.77
2019-02-21T06:22:55.052Z,79.30
2019-02-21T06:23:55.083Z,79.30
2019-02-21T06:24:55.112Z,79.77
2019-02-21T06:25:58.866Z,79.43
2019-02-21T06:26:55.173Z,79.01
2019-02-21T06:27:55.206Z,79.39
2019-02-21T06:28:55.237Z,79.30
2019-02-21T06:29:55.265Z,79.58
2019-02-21T06:30:55.294Z,79.01
2019-02-21T06:31:55.323Z,79.58
2019-02-21T06:33:04.585Z,79.58
2019-02-21T06:33:55.383Z,79.49
2019-02-21T06:34:55.414Z,79.11
2019-02-21T06:35:55.444Z,79.30
2019-02-21T06:36:55.483Z,78.91
2019-02-21T06:37:55.507Z,79.01
2019-02-21T06:38:55.539Z,79.49
2019-02-21T06:39:55.564Z,79.72
2019-02-21T06:40:55.595Z,78.96
2019-02-21T06:41:59.638Z,78.63
2019-02-21T06:42:55.662Z,78.72
2019-02-21T06:43:56.858Z,79.14
2019-02-21T06:44:55.718Z,79.14
2019-02-21T06:45:57.844Z,78.82
2019-02-21T06:46:55.779Z,78.96
2019-02-21T06:47:55.810Z,78.91
2019-02-21T06:48:55.837Z,79.14
2019-02-21T06:49:55.867Z,78.77
2019-02-21T06:50:55.896Z,78.91
2019-02-21T06:51:55.931Z,79.05
2019-02-21T06:52:55.957Z,78.86
2019-02-21T06:53:55.987Z,79.33
2019-02-21T06:54:56.018Z,78.77
2019-02-21T06:55:56.050Z,78.86
2019-02-21T06:56:56.084Z,78.77
2019-02-21T06:57:56.108Z,78.67
2019-02-21T06:58:56.138Z,78.48
2019-02-21T06:59:56.169Z,78.57
2019-02-21T07:00:56.201Z,78.48
2019-02-21T07:01:56.230Z,78.57
2019-02-21T07:02:56.272Z,78.00
2019-02-21T07:03:56.289Z,77.91
2019-02-21T07:04:56.790Z,78.00
2019-02-21T07:05:56.352Z,78.57
2019-02-21T07:06:56.955Z,77.62
2019-02-21T07:07:56.410Z,77.81
2019-02-21T07:08:56.448Z,77.81
2019-02-21T07:09:56.472Z,78.10
2019-02-21T07:11:05.933Z,77.53
2019-02-21T07:11:56.534Z,77.24
2019-02-21T07:12:56.562Z,77.72
2019-02-21T07:13:56.595Z,77.53
2019-02-21T07:14:56.621Z,77.43
2019-02-21T07:15:58.486Z,77.05
2019-02-21T07:16:56.682Z,77.24
2019-02-21T07:17:56.715Z,77.15
2019-02-21T07:18:56.746Z,77.15
2019-02-21T07:19:56.775Z,76.96
2019-02-21T07:20:56.853Z,76.86
2019-02-21T07:21:56.836Z,76.76
2019-02-21T07:22:56.867Z,76.76
2019-02-21T07:23:56.894Z,76.76
2019-02-21T07:24:56.934Z,77.24
2019-02-21T07:25:56.956Z,76.96
2019-02-21T07:26:56.985Z,77.43
2019-02-21T07:27:58.380Z,77.53
2019-02-21T07:28:58.393Z,77.05
2019-02-21T07:29:57.077Z,76.96
2019-02-21T07:30:57.109Z,76.86
2019-02-21T07:31:57.137Z,76.96
2019-02-21T07:32:57.166Z,77.24
2019-02-21T07:33:57.202Z,76.76
2019-02-21T07:34:57.233Z,76.86
2019-02-21T07:35:57.256Z,77.43
2019-02-21T07:36:57.291Z,76.86
2019-02-21T07:37:57.318Z,77.05
2019-02-21T07:39:13.930Z,76.86
2019-02-21T07:39:57.378Z,76.96
2019-02-21T07:40:57.426Z,77.05
2019-02-21T07:41:57.441Z,76.96
2019-02-21T07:42:58.692Z,76.57
2019-02-21T07:43:57.499Z,76.39
2019-02-21T07:44:59.702Z,76.67
2019-02-21T07:45:57.560Z,76.57
2019-02-21T07:46:57.593Z,76.39
2019-02-21T07:47:57.624Z,77.24
2019-02-21T07:48:57.650Z,77.05
2019-02-21T07:49:57.683Z,77.05
2019-02-21T07:50:57.712Z,77.15
2019-02-21T07:51:57.741Z,76.96
2019-02-21T07:53:02.572Z,77.43
2019-02-21T07:53:57.805Z,77.53
2019-02-21T07:55:01.919Z,77.43
2019-02-21T07:55:57.863Z,77.24
2019-02-21T07:56:57.900Z,77.24
2019-02-21T07:57:57.926Z,77.43
2019-02-21T07:58:57.955Z,77.24
2019-02-21T07:59:58.033Z,77.62
2019-02-21T08:00:58.015Z,77.81
2019-02-21T08:01:58.050Z,77.91
2019-02-21T08:02:58.077Z,77.72
2019-02-21T08:03:58.106Z,77.62
2019-02-21T08:04:58.136Z,77.72
2019-02-21T08:05:58.166Z,77.43
2019-02-21T08:06:58.197Z,77.05
2019-02-21T08:07:58.235Z,77.43
2019-02-21T08:08:58.260Z,77.53
2019-02-21T08:09:58.288Z,77.24
2019-02-21T08:10:58.319Z,77.62
2019-02-21T08:11:58.350Z,77.05
2019-02-21T08:12:58.380Z,77.62
2019-02-21T08:13:58.410Z,77.62
2019-02-21T08:14:58.440Z,78.00
2019-02-21T08:15:58.473Z,78.57
2019-02-21T08:16:58.500Z,77.91
2019-02-21T08:17:58.531Z,78.57
2019-02-21T08:18:58.562Z,78.29
2019-02-21T08:20:07.949Z,78.57
2019-02-21T08:20:58.622Z,79.05
2019-02-21T08:22:00.241Z,78.86
2019-02-21T08:22:58.683Z,79.81
2019-02-21T08:23:59.304Z,80.38
2019-02-21T08:24:58.743Z,80.29
2019-02-21T08:25:58.777Z,80.29
2019-02-21T08:26:58.804Z,80.00
2019-02-21T08:27:58.846Z,80.38
2019-02-21T08:28:58.868Z,80.95
2019-02-21T08:29:58.896Z,80.57
2019-02-21T08:30:58.925Z,81.05
2019-02-21T08:31:58.957Z,80.47
2019-02-21T08:32:58.984Z,80.95
2019-02-21T08:33:59.129Z,81.14
2019-02-21T08:34:59.053Z,81.33
2019-02-21T08:35:59.077Z,81.52
2019-02-21T08:36:59.106Z,82.19
2019-02-21T08:37:59.136Z,81.71
2019-02-21T08:38:59.168Z,82.28
2019-02-21T08:39:59.196Z,81.81
2019-02-21T08:40:59.229Z,82.48
2019-02-21T08:41:59.258Z,82.48
2019-02-21T08:42:59.287Z,82.38
2019-02-21T08:43:59.317Z,82.28
2019-02-21T08:44:59.348Z,82.48
2019-02-21T08:45:59.380Z,81.71
2019-02-21T08:46:59.411Z,82.09
2019-02-21T08:47:59.437Z,82.38
2019-02-21T08:48:59.468Z,83.23
2019-02-21T08:49:59.866Z,83.62
2019-02-21T08:50:59.530Z,82.09
2019-02-21T08:51:59.561Z,83.33
2019-02-21T08:53:01.055Z,82.67
2019-02-21T08:53:59.626Z,82.67
2019-02-21T08:55:00.606Z,82.28
2019-02-21T08:55:59.679Z,82.76
2019-02-21T08:56:59.757Z,82.86
2019-02-21T08:57:59.742Z,83.33
2019-02-21T08:58:59.775Z,82.86
2019-02-21T08:59:59.801Z,82.76
2019-02-21T09:00:59.834Z,82.76
2019-02-21T09:01:59.866Z,83.23
2019-02-21T09:02:59.892Z,82.86
2019-02-21T09:04:09.875Z,82.57
2019-02-21T09:04:59.956Z,82.28
2019-02-21T09:05:59.983Z,82.76
2019-02-21T09:07:00.014Z,82.48
2019-02-21T09:08:00.045Z,82.57
2019-02-21T09:09:00.077Z,83.33
2019-02-21T09:10:00.218Z,83.81
2019-02-21T09:11:00.136Z,83.42
2019-02-21T09:12:00.165Z,83.52
2019-02-21T09:13:00.200Z,83.42
2019-02-21T09:14:00.227Z,83.81
2019-02-21T09:15:00.587Z,83.52
2019-02-21T09:16:00.284Z,83.62
2019-02-21T09:17:00.325Z,83.81
2019-02-21T09:18:00.345Z,83.14
2019-02-21T09:19:00.377Z,82.86
2019-02-21T09:20:00.407Z,82.95
2019-02-21T09:21:00.438Z,82.95
2019-02-21T09:22:00.475Z,83.04
2019-02-21T09:23:00.497Z,83.23
2019-02-21T09:24:00.526Z,82.28
2019-02-21T09:25:02.657Z,82.38
2019-02-21T09:26:00.590Z,82.51
2019-02-21T09:27:00.618Z,82.57
2019-02-21T09:28:00.651Z,82.32
2019-02-21T09:29:00.679Z,82.80
2019-02-21T09:30:00.709Z,81.66
2019-02-21T09:31:00.749Z,82.14
2019-02-21T09:32:00.773Z,81.76
2019-02-21T09:33:00.800Z,81.85
2019-02-21T09:34:00.833Z,81.76
2019-02-21T09:35:00.865Z,82.14
2019-02-21T09:36:00.891Z,81.85
2019-02-21T09:37:01.041Z,81.66
2019-02-21T09:38:00.951Z,82.23
2019-02-21T09:39:00.982Z,81.85
2019-02-21T09:40:01.011Z,81.85
2019-02-21T09:41:01.042Z,81.85
2019-02-21T09:42:01.072Z,81.66
2019-02-21T09:43:01.104Z,81.09
2019-02-21T09:44:01.133Z,81.56
2019-02-21T09:45:01.166Z,82.04
2019-02-21T09:46:01.196Z,81.66
2019-02-21T09:47:01.224Z,81.18
2019-02-21T09:48:01.257Z,81.09
2019-02-21T09:49:02.970Z,81.37
2019-02-21T09:50:01.322Z,81.09
2019-02-21T09:51:01.347Z,80.71
2019-02-21T09:52:01.376Z,81.03
2019-02-21T09:53:01.407Z,80.94
2019-02-21T09:54:01.440Z,80.84
2019-02-21T09:55:01.468Z,80.27
2019-02-21T09:56:01.505Z,80.18
2019-02-21T09:57:12.424Z,78.94
2019-02-21T09:58:01.563Z,79.03
2019-02-21T09:59:01.598Z,78.94
2019-02-21T10:00:01.623Z,78.69
2019-02-21T10:01:01.652Z,78.12
2019-02-21T10:02:01.682Z,77.55
2019-02-21T10:03:01.722Z,77.83
2019-02-21T10:04:01.807Z,77.64
2019-02-21T10:05:05.103Z,77.55
2019-02-21T10:06:01.806Z,76.88
2019-02-21T10:07:01.837Z,76.69
2019-02-21T10:08:01.877Z,76.21
2019-02-21T10:09:01.901Z,76.31
2019-02-21T10:10:01.930Z,76.21
2019-02-21T10:11:01.962Z,75.84
2019-02-21T10:12:01.991Z,75.74
2019-02-21T10:13:02.027Z,76.03
2019-02-21T10:14:02.053Z,76.21
2019-02-21T10:15:02.094Z,76.03
2019-02-21T10:16:04.640Z,74.92
2019-02-21T10:17:02.147Z,74.82
2019-02-21T10:18:02.222Z,74.63
2019-02-21T10:19:02.209Z,74.25
2019-02-21T10:20:04.147Z,73.77
2019-02-21T10:21:02.270Z,73.43
2019-02-21T10:22:04.428Z,72.57
2019-02-21T10:23:02.337Z,71.43
2019-02-21T10:24:02.376Z,71.62
2019-02-21T10:25:02.398Z,71.33
2019-02-21T10:26:02.431Z,71.46
2019-02-21T10:27:02.462Z,69.37
2019-02-21T10:28:02.495Z,68.88
2019-02-21T10:29:02.530Z,69.59
2019-02-21T10:30:02.564Z,68.63
2019-02-21T10:31:02.593Z,67.52
2019-02-21T10:32:02.627Z,66.47
2019-02-21T10:33:02.662Z,64.69
2019-02-21T10:34:02.694Z,64.22
2019-02-21T10:35:02.730Z,63.64
2019-02-21T10:36:02.763Z,63.00
2019-02-21T10:37:02.799Z,63.00
2019-02-21T10:38:02.833Z,62.62
2019-02-21T10:39:02.869Z,60.83
2019-02-21T10:40:02.903Z,59.43
2019-02-21T10:41:02.940Z,58.56
2019-02-21T10:42:02.974Z,56.97
2019-02-21T10:43:03.011Z,56.59
2019-02-21T10:44:03.045Z,55.85
2019-02-21T10:45:03.589Z,54.91
2019-02-21T10:46:03.117Z,53.82
2019-02-21T10:47:03.156Z,51.93
2019-02-21T10:48:03.194Z,50.82
2019-02-21T10:49:03.235Z,47.49
2019-02-21T10:50:03.264Z,46.36
2019-02-21T10:51:03.308Z,45.61
2019-02-21T10:52:03.339Z,43.41
2019-02-21T10:53:03.387Z,42.16
2019-02-21T10:54:03.416Z,41.82
2019-02-21T10:55:03.453Z,40.39
2019-02-21T10:56:03.491Z,39.06
2019-02-21T10:57:03.530Z,38.23
2019-02-21T10:58:03.571Z,37.48
2019-02-21T10:59:03.607Z,35.99
2019-02-21T11:00:03.647Z,33.57
2019-02-21T11:01:03.685Z,33.57
2019-02-21T11:02:03.729Z,33.28
2019-02-21T11:03:03.770Z,32.59
2019-02-21T11:04:03.809Z,33.73
2019-02-21T11:05:03.844Z,34.74
2019-02-21T11:06:03.885Z,36.15
2019-02-21T11:07:03.923Z,38.33
2019-02-21T11:08:03.962Z,39.49
2019-02-21T11:09:04.002Z,40.89
2019-02-21T11:10:04.045Z,42.03
2019-02-21T11:11:04.082Z,42.80
2019-02-21T11:12:04.120Z,42.63
2019-02-21T11:13:04.169Z,41.51
2019-02-21T11:14:04.202Z,39.34
2019-02-21T11:15:04.236Z,38.31
2019-02-21T11:16:04.278Z,36.90
2019-02-21T11:17:04.319Z,33.73
2019-02-21T11:18:04.352Z,32.49
2019-02-21T11:19:04.394Z,32.12
2019-02-21T11:20:04.431Z,32.62
2019-02-21T11:21:04.470Z,31.57
2019-02-21T11:22:04.518Z,30.34
2019-02-21T11:23:06.503Z,29.00
2019-02-21T11:24:04.590Z,28.15
2019-02-21T11:25:04.632Z,27.10
2019-02-21T11:26:04.672Z,26.15
2019-02-21T11:27:04.713Z,24.90
2019-02-21T11:28:04.753Z,24.22
2019-02-21T11:29:04.796Z,24.02
2019-02-21T11:30:04.836Z,25.27
2019-02-21T11:31:04.877Z,24.89
2019-02-21T11:32:04.932Z,25.15
2019-02-21T11:33:04.960Z,25.62
2019-02-21T11:34:05.001Z,26.95
2019-02-21T11:35:06.483Z,28.17
2019-02-21T11:36:05.087Z,30.61
2019-02-21T11:37:05.124Z,33.47
2019-02-21T11:38:05.170Z,35.46
2019-02-21T11:39:05.206Z,37.72
2019-02-21T11:40:05.681Z,39.53
2019-02-21T11:41:05.286Z,41.41
2019-02-21T11:42:05.323Z,42.93
2019-02-21T11:43:05.367Z,43.70
2019-02-21T11:44:05.402Z,44.20
2019-02-21T11:45:05.440Z,43.26
2019-02-21T11:46:05.498Z,41.28
2019-02-21T11:47:05.519Z,39.18
2019-02-21T11:48:05.560Z,37.50
2019-02-21T11:49:05.597Z,35.71
2019-02-21T11:50:05.645Z,33.83
2019-02-21T11:51:07.438Z,31.26
2019-02-21T11:52:10.135Z,30.05
2019-02-21T11:53:05.752Z,28.25
2019-02-21T11:54:05.793Z,25.96
2019-02-21T11:55:05.834Z,24.94
2019-02-21T11:56:05.874Z,22.42
2019-02-21T11:57:05.914Z,21.08
2019-02-21T11:58:05.955Z,20.41
2019-02-21T11:59:05.994Z,20.04
2019-02-21T12:00:06.038Z,19.84
2019-02-21T12:01:06.075Z,19.35
2019-02-21T12:02:06.117Z,19.54
2019-02-21T12:03:06.160Z,19.70
2019-02-21T12:04:06.203Z,20.95
2019-02-21T12:05:16.659Z,22.08
2019-02-21T12:06:06.283Z,23.79
2019-02-21T12:07:06.357Z,25.60
2019-02-21T12:08:06.367Z,26.63
2019-02-21T12:09:06.408Z,28.04
2019-02-21T12:10:06.447Z,30.14
2019-02-21T12:11:06.487Z,31.65
2019-02-21T12:12:06.547Z,33.36
2019-02-21T12:13:06.567Z,35.17
2019-02-21T12:14:06.611Z,36.11
2019-02-21T12:15:06.649Z,36.66
2019-02-21T12:16:06.684Z,38.09
2019-02-21T12:17:06.741Z,38.93
2019-02-21T12:18:06.763Z,40.37
2019-02-21T12:19:06.802Z,40.55
2019-02-21T12:20:06.842Z,40.91
2019-02-21T12:21:06.882Z,41.46
2019-02-21T12:22:06.918Z,42.43
2019-02-21T12:23:06.955Z,43.17
2019-02-21T12:24:06.992Z,43.94
2019-02-21T12:25:07.030Z,44.70
2019-02-21T12:26:07.069Z,44.68
2019-02-21T12:27:07.107Z,44.78
2019-02-21T12:28:07.143Z,45.62
2019-02-21T12:29:07.179Z,46.39
2019-02-21T12:30:07.218Z,47.06
2019-02-21T12:31:07.261Z,47.63
2019-02-21T12:32:07.291Z,47.80
2019-02-21T12:33:07.331Z,48.18
2019-02-21T12:34:07.365Z,48.95
2019-02-21T12:35:07.403Z,49.14
2019-02-21T12:36:07.437Z,49.43
2019-02-21T12:37:07.476Z,49.69
2019-02-21T12:38:07.512Z,49.81
2019-02-21T12:39:07.547Z,49.98
2019-02-21T12:40:07.586Z,50.56
2019-02-21T12:41:07.619Z,50.56
2019-02-21T12:42:07.656Z,51.79
2019-02-21T12:43:07.692Z,51.97
2019-02-21T12:44:07.742Z,52.15
2019-02-21T12:45:07.787Z,52.73
2019-02-21T12:46:07.800Z,52.83
2019-02-21T12:47:07.834Z,52.89
2019-02-21T12:48:07.868Z,53.56
2019-02-21T12:49:10.559Z,53.94
2019-02-21T12:50:07.940Z,54.52
2019-02-21T12:51:07.976Z,54.43
2019-02-21T12:52:08.013Z,55.16
2019-02-21T12:53:08.044Z,55.45